Clifty, Kentucky
Current Conditions -  °F | °C
As of 2:15 AM on Tuesday 27 Jan 2015 (Local Time) from K2I0 Reporting Station
Overcast Overcast  
Wind Chill: 33°   Ceiling: 3400
Heat Index: 33°   Visibility: 7mi
Dew Point: 33°   Wind: 0mph
Humidity: 100%   Direction: NA
Pressure: 29.91"   Gusts: NA
Location:  37°N, 87.15°W
Report Text: K2I0 270815Z AUTO 00000KT 7SM BKN034 BKN044 OVC065 01/01 A2991 RMK AO2 T00070007
Loading
Personal Weather Stations






























Interactive Weather Map New forecast layout! Learn more

10-Day Weather Forecast

Advertisements
Track Severe Weather on mobile